Wayan, Idaho
Current Conditions -  °F | °C
As of 7:55 PM on Sunday 23 Nov 2014 (Local Time) from KAFO Reporting Station
Light Snow Light Snow  
Wind Chill: 25°   Ceiling: 900
Heat Index: 25°   Visibility: 4mi
Dew Point: 21°   Wind: 3mph
Humidity: 86%   Direction: 80°E
Pressure: 30.1"   Gusts: NA
Location:  42.99°N, 111.38°W
Report Text: KAFO 240255Z AUTO 08003KT 4SM -SN OVC009 M04/M06 A3010 RMK AO2
Loading
Personal Weather Stations






























Interactive Weather Map New forecast layout! Learn more

10-Day Weather Forecast

Advertisements
Track Severe Weather on mobile